createdAt,value
2018-07-23T00:00:41.695Z,17.03
2018-07-23T00:03:11.059Z,17.06
2018-07-23T00:05:40.426Z,17.71
2018-07-23T00:08:09.819Z,17.09
2018-07-23T00:10:39.193Z,17.07
2018-07-23T00:13:08.552Z,17.06
2018-07-23T00:15:37.924Z,17.18
2018-07-23T00:18:08.562Z,17.15
2018-07-23T00:20:37.936Z,17.12
2018-07-23T00:23:07.564Z,17.12
2018-07-23T00:25:36.972Z,17.16
2018-07-23T00:28:06.451Z,17.09
2018-07-23T00:30:35.807Z,17.13
2018-07-23T00:33:05.171Z,16.84
2018-07-23T00:35:34.548Z,17.05
2018-07-23T00:38:03.915Z,17.05
2018-07-23T00:40:33.288Z,16.68
2018-07-23T00:43:02.662Z,16.97
2018-07-23T00:45:32.036Z,16.92
2018-07-23T00:48:01.143Z,16.97
2018-07-23T00:50:30.520Z,16.94
2018-07-23T00:52:59.884Z,16.74
2018-07-23T00:55:29.720Z,16.84
2018-07-23T00:57:59.083Z,16.62
2018-07-23T01:00:28.463Z,16.87
2018-07-23T01:03:01.904Z,16.81
2018-07-23T01:05:31.300Z,16.89
2018-07-23T01:08:00.643Z,16.80
2018-07-23T01:10:29.753Z,16.76
2018-07-23T01:12:59.148Z,16.85
2018-07-23T01:15:28.247Z,16.73
2018-07-23T01:17:57.619Z,16.76
2018-07-23T01:20:26.979Z,16.79
2018-07-23T01:22:56.344Z,16.80
2018-07-23T01:25:25.451Z,16.75
2018-07-23T01:27:54.859Z,16.92
2018-07-23T01:30:24.234Z,16.89
2018-07-23T01:32:53.628Z,16.79
2018-07-23T01:35:22.980Z,16.61
2018-07-23T01:37:52.347Z,16.78
2018-07-23T01:40:21.715Z,16.83
2018-07-23T01:42:51.092Z,16.78
2018-07-23T01:45:20.455Z,16.70
2018-07-23T01:47:49.822Z,16.76
2018-07-23T01:50:19.192Z,16.71
2018-07-23T01:52:48.555Z,16.71
2018-07-23T01:55:17.662Z,16.62
2018-07-23T01:57:47.043Z,16.61
2018-07-23T02:00:16.450Z,16.56
2018-07-23T02:02:45.849Z,16.57
2018-07-23T02:05:14.963Z,16.53
2018-07-23T02:07:44.361Z,16.55
2018-07-23T02:10:13.607Z,16.49
2018-07-23T02:12:42.995Z,16.52
2018-07-23T02:15:12.391Z,16.45
2018-07-23T02:17:41.793Z,16.48
2018-07-23T02:20:11.179Z,16.45
2018-07-23T02:22:40.604Z,16.53
2018-07-23T02:25:09.984Z,16.47
2018-07-23T02:27:39.376Z,16.45
2018-07-23T02:30:08.885Z,16.47
2018-07-23T02:32:38.292Z,16.42
2018-07-23T02:35:07.681Z,16.42
2018-07-23T02:37:37.088Z,16.49
2018-07-23T02:40:06.605Z,16.45
2018-07-23T02:42:36.011Z,16.29
2018-07-23T02:45:05.452Z,16.27
2018-07-23T02:47:34.844Z,16.35
2018-07-23T02:50:04.267Z,16.27
2018-07-23T02:52:33.696Z,16.28
2018-07-23T02:55:02.874Z,16.27
2018-07-23T02:57:32.300Z,15.99
2018-07-23T03:00:01.723Z,16.23
2018-07-23T03:02:31.348Z,16.19
2018-07-23T03:05:00.749Z,16.25
2018-07-23T03:07:30.145Z,16.26
2018-07-23T03:09:59.539Z,16.26
2018-07-23T03:12:28.918Z,16.23
2018-07-23T03:14:58.336Z,16.19
2018-07-23T03:17:27.744Z,16.20
2018-07-23T03:19:57.167Z,16.20
2018-07-23T03:22:26.600Z,16.24
2018-07-23T03:24:56.011Z,16.12
2018-07-23T03:27:25.452Z,16.27
2018-07-23T03:29:54.851Z,16.23
2018-07-23T03:32:24.268Z,16.26
2018-07-23T03:34:53.650Z,16.20
2018-07-23T03:37:23.052Z,16.25
2018-07-23T03:39:52.459Z,16.21
2018-07-23T03:42:21.881Z,16.20
2018-07-23T03:44:51.279Z,16.14
2018-07-23T03:47:20.671Z,16.17
2018-07-23T03:49:50.081Z,16.11
2018-07-23T03:52:19.475Z,16.09
2018-07-23T03:54:48.884Z,16.08
2018-07-23T03:57:18.309Z,16.11
2018-07-23T03:59:47.744Z,16.13
2018-07-23T04:02:17.136Z,16.13
2018-07-23T04:04:46.557Z,16.19
2018-07-23T04:07:15.687Z,16.15
2018-07-23T04:09:45.559Z,16.26
2018-07-23T04:12:14.958Z,16.23
2018-07-23T04:14:44.358Z,16.12
2018-07-23T04:17:13.756Z,16.03
2018-07-23T04:19:43.156Z,16.14
2018-07-23T04:22:12.575Z,16.03
2018-07-23T04:24:41.711Z,16.29
2018-07-23T04:27:11.113Z,16.23
2018-07-23T04:29:40.528Z,16.19
2018-07-23T04:32:09.928Z,16.15
2018-07-23T04:34:39.353Z,16.23
2018-07-23T04:37:08.759Z,16.18
2018-07-23T04:39:38.168Z,16.29
2018-07-23T04:42:09.279Z,16.26
2018-07-23T04:44:38.691Z,16.27
2018-07-23T04:47:08.112Z,16.33
2018-07-23T04:49:37.536Z,16.36
2018-07-23T04:52:06.972Z,16.42
2018-07-23T04:54:36.424Z,16.52
2018-07-23T04:57:05.825Z,16.46
2018-07-23T04:59:35.228Z,16.49
2018-07-23T05:02:04.640Z,16.58
2018-07-23T05:04:34.036Z,15.90
2018-07-23T05:07:03.449Z,16.71
2018-07-23T05:09:32.587Z,16.67
2018-07-23T05:12:02.011Z,16.73
2018-07-23T05:14:31.441Z,16.72
2018-07-23T05:17:00.862Z,16.81
2018-07-23T05:19:30.274Z,16.70
2018-07-23T05:21:59.677Z,16.75
2018-07-23T05:24:29.099Z,16.79
2018-07-23T05:26:58.567Z,16.88
2018-07-23T05:29:27.982Z,16.94
2018-07-23T05:31:57.409Z,16.95
2018-07-23T05:34:26.812Z,16.92
2018-07-23T05:36:56.239Z,17.02
2018-07-23T05:39:25.636Z,16.98
2018-07-23T05:41:55.067Z,17.08
2018-07-23T05:44:24.463Z,16.88
2018-07-23T05:46:53.867Z,17.18
2018-07-23T05:49:23.269Z,17.17
2018-07-23T05:51:52.670Z,17.10
2018-07-23T05:54:22.082Z,17.18
2018-07-23T05:56:51.484Z,17.13
2018-07-23T05:59:21.027Z,17.17
2018-07-23T06:01:50.428Z,17.24
2018-07-23T06:04:19.826Z,17.27
2018-07-23T06:06:49.264Z,17.41
2018-07-23T06:09:18.334Z,17.41
2018-07-23T06:11:47.735Z,17.45
2018-07-23T06:14:17.121Z,17.52
2018-07-23T06:16:46.547Z,17.52
2018-07-23T06:19:15.942Z,17.62
2018-07-23T06:21:45.371Z,17.62
2018-07-23T06:24:14.784Z,17.64
2018-07-23T06:26:44.212Z,17.70
2018-07-23T06:29:13.611Z,17.62
2018-07-23T06:31:43.030Z,18.38
2018-07-23T06:34:12.411Z,17.86
2018-07-23T06:36:41.833Z,18.35
2018-07-23T06:39:11.810Z,18.01
2018-07-23T06:41:41.589Z,18.05
2018-07-23T06:44:10.992Z,18.12
2018-07-23T06:46:40.937Z,18.13
2018-07-23T06:49:10.276Z,18.21
2018-07-23T06:51:39.408Z,18.06
2018-07-23T06:54:09.347Z,18.39
2018-07-23T06:56:39.016Z,18.31
2018-07-23T06:59:08.425Z,18.39
2018-07-23T07:01:37.839Z,18.36
2018-07-23T07:04:07.236Z,18.51
2018-07-23T07:06:36.642Z,18.61
2018-07-23T07:09:09.510Z,18.61
2018-07-23T07:11:39.036Z,18.80
2018-07-23T07:14:08.927Z,18.86
2018-07-23T07:16:38.319Z,18.91
2018-07-23T07:19:07.729Z,19.00
2018-07-23T07:21:37.128Z,19.09
2018-07-23T07:24:06.556Z,19.13
2018-07-23T07:26:35.970Z,19.18
2018-07-23T07:29:05.376Z,19.26
2018-07-23T07:31:34.776Z,18.62
2018-07-23T07:34:04.216Z,19.28
2018-07-23T07:36:33.603Z,19.32
2018-07-23T07:39:02.996Z,19.45
2018-07-23T07:41:32.466Z,19.49
2018-07-23T07:44:01.861Z,19.58
2018-07-23T07:46:31.273Z,19.51
2018-07-23T07:49:00.639Z,19.52
2018-07-23T07:51:29.785Z,19.60
2018-07-23T07:53:59.188Z,19.62
2018-07-23T07:56:28.559Z,19.81
2018-07-23T07:58:57.975Z,19.82
2018-07-23T08:01:27.384Z,19.88
2018-07-23T08:03:56.776Z,19.84
2018-07-23T08:06:26.163Z,19.97
2018-07-23T08:08:55.569Z,19.91
2018-07-23T08:11:24.988Z,19.98
2018-07-23T08:13:54.404Z,19.92
2018-07-23T08:16:23.787Z,19.97
2018-07-23T08:18:53.250Z,19.99
2018-07-23T08:21:22.636Z,19.45
2018-07-23T08:23:52.045Z,20.07
2018-07-23T08:26:21.441Z,19.89
2018-07-23T08:28:50.851Z,20.23
2018-07-23T08:31:20.349Z,20.30
2018-07-23T08:33:49.761Z,20.32
2018-07-23T08:36:19.171Z,20.32
2018-07-23T08:38:48.322Z,20.49
2018-07-23T08:41:17.721Z,20.69
2018-07-23T08:43:47.117Z,20.76
2018-07-23T08:46:16.512Z,20.72
2018-07-23T08:48:45.904Z,20.81
2018-07-23T08:51:15.322Z,20.99
2018-07-23T08:53:44.741Z,21.00
2018-07-23T08:56:14.172Z,21.03
2018-07-23T08:58:43.532Z,21.09
2018-07-23T09:01:12.930Z,21.19
2018-07-23T09:03:42.317Z,21.18
2018-07-23T09:06:11.724Z,21.39
2018-07-23T09:08:41.169Z,21.40
2018-07-23T09:11:10.536Z,21.51
2018-07-23T09:13:39.976Z,21.64
2018-07-23T09:16:09.476Z,21.76
2018-07-23T09:18:38.864Z,21.90
2018-07-23T09:21:08.256Z,22.02
2018-07-23T09:23:37.729Z,21.91
2018-07-23T09:26:07.181Z,21.96
2018-07-23T09:28:36.564Z,22.06
2018-07-23T09:31:05.991Z,22.26
2018-07-23T09:33:35.377Z,22.27
2018-07-23T09:36:04.782Z,22.29
2018-07-23T09:38:34.178Z,22.42
2018-07-23T09:41:03.594Z,22.40
2018-07-23T09:43:33.003Z,22.38
2018-07-23T09:46:02.403Z,22.57
2018-07-23T09:48:31.795Z,22.65
2018-07-23T09:51:01.201Z,22.75
2018-07-23T09:53:30.595Z,22.91
2018-07-23T09:56:00.025Z,23.05
2018-07-23T09:58:29.453Z,22.90
2018-07-23T10:01:02.767Z,22.80
2018-07-23T10:06:00.611Z,22.49
2018-07-23T10:08:30.073Z,23.03
2018-07-23T10:10:59.485Z,22.39
2018-07-23T10:13:28.857Z,22.36
2018-07-23T10:15:58.264Z,22.31
2018-07-23T10:18:27.656Z,22.37
2018-07-23T10:20:57.072Z,22.47
2018-07-23T10:23:26.472Z,22.61
2018-07-23T10:25:55.884Z,22.83
2018-07-23T10:28:25.296Z,22.90
2018-07-23T10:30:54.689Z,22.92
2018-07-23T10:33:24.093Z,22.96
2018-07-23T10:35:53.500Z,22.96
2018-07-23T10:38:22.907Z,23.03
2018-07-23T10:40:52.283Z,23.07
2018-07-23T10:43:21.683Z,23.33
2018-07-23T10:45:51.103Z,23.40
2018-07-23T10:48:20.500Z,23.39
2018-07-23T10:50:49.917Z,23.28
2018-07-23T10:53:19.315Z,23.16
2018-07-23T10:55:48.724Z,23.10
2018-07-23T10:58:18.126Z,23.22
2018-07-23T11:00:47.529Z,23.32
2018-07-23T11:03:16.942Z,23.40
2018-07-23T11:05:46.383Z,23.68
2018-07-23T11:08:15.544Z,23.69
2018-07-23T11:10:44.952Z,23.85
2018-07-23T11:13:14.363Z,23.82
2018-07-23T11:15:43.773Z,23.89
2018-07-23T11:18:13.164Z,23.20
2018-07-23T11:20:42.561Z,23.70
2018-07-23T11:23:11.993Z,23.84
2018-07-23T11:25:41.393Z,24.06
2018-07-23T11:28:10.826Z,24.16
2018-07-23T11:30:40.227Z,24.15
2018-07-23T11:33:09.628Z,24.19
2018-07-23T11:35:39.030Z,24.29
2018-07-23T11:38:09.262Z,24.33
2018-07-23T11:40:38.652Z,24.52
2018-07-23T11:43:08.076Z,24.75
2018-07-23T11:45:37.469Z,24.96
2018-07-23T11:48:06.921Z,25.04
2018-07-23T11:50:36.327Z,25.06
2018-07-23T11:53:05.729Z,24.98
2018-07-23T11:55:35.136Z,25.32
2018-07-23T11:58:04.287Z,25.54
2018-07-23T12:00:33.681Z,25.56
2018-07-23T12:03:03.109Z,25.28
2018-07-23T12:05:32.517Z,25.16
2018-07-23T12:08:01.949Z,25.22
2018-07-23T12:10:31.365Z,25.35
2018-07-23T12:13:00.767Z,25.14
2018-07-23T12:15:30.164Z,25.51
2018-07-23T12:17:59.771Z,25.72
2018-07-23T12:20:29.155Z,25.83
2018-07-23T12:22:58.565Z,26.09
2018-07-23T12:25:27.702Z,25.98
2018-07-23T12:27:57.122Z,25.74
2018-07-23T12:30:26.543Z,26.04
2018-07-23T12:32:56.011Z,26.34
2018-07-23T12:35:25.481Z,26.62
2018-07-23T12:37:54.930Z,26.75
2018-07-23T12:40:24.711Z,26.92
2018-07-23T12:42:54.107Z,26.50
2018-07-23T12:45:23.503Z,26.37
2018-07-23T12:47:52.892Z,25.94
2018-07-23T12:50:22.301Z,26.73
2018-07-23T12:52:51.414Z,26.87
2018-07-23T12:55:20.814Z,26.58
2018-07-23T12:57:50.199Z,26.65
2018-07-23T13:00:19.339Z,26.97
2018-07-23T13:02:48.729Z,27.04
2018-07-23T13:05:18.144Z,26.37
2018-07-23T13:07:47.540Z,26.54
2018-07-23T13:10:16.950Z,26.87
2018-07-23T13:12:46.331Z,26.91
2018-07-23T13:15:15.752Z,27.49
2018-07-23T13:17:45.145Z,27.45
2018-07-23T13:20:14.544Z,27.13
2018-07-23T13:22:43.956Z,26.79
2018-07-23T13:25:13.360Z,26.60
2018-07-23T13:27:42.762Z,26.95
2018-07-23T13:30:12.157Z,27.33
2018-07-23T13:32:41.854Z,27.39
2018-07-23T13:35:11.272Z,27.21
2018-07-23T13:37:40.952Z,26.90
2018-07-23T13:40:10.486Z,27.02
2018-07-23T13:42:39.872Z,27.37
2018-07-23T13:45:09.288Z,27.18
2018-07-23T13:47:38.688Z,28.06
2018-07-23T13:50:09.391Z,27.88
2018-07-23T13:52:38.799Z,28.60
2018-07-23T13:55:08.237Z,28.98
2018-07-23T13:57:37.615Z,29.01
2018-07-23T14:00:07.827Z,28.40
2018-07-23T14:02:37.227Z,28.70
2018-07-23T14:05:06.762Z,28.40
2018-07-23T14:07:36.148Z,28.76
2018-07-23T14:10:06.028Z,28.77
2018-07-23T14:12:35.156Z,29.26
2018-07-23T14:15:04.850Z,29.08
2018-07-23T14:17:34.179Z,28.77
2018-07-23T14:20:03.587Z,28.58
2018-07-23T14:22:32.954Z,28.25
2018-07-23T14:25:02.352Z,28.09
2018-07-23T14:27:31.740Z,27.86
2018-07-23T14:30:00.888Z,28.25
2018-07-23T14:32:30.293Z,28.65
2018-07-23T14:34:59.704Z,29.02
2018-07-23T14:37:29.093Z,29.22
2018-07-23T14:39:58.517Z,29.60
2018-07-23T14:42:27.921Z,29.16
2018-07-23T14:44:57.333Z,28.42
2018-07-23T14:47:26.745Z,27.76
2018-07-23T14:49:56.191Z,27.66
2018-07-23T14:52:25.596Z,27.21
2018-07-23T14:54:54.992Z,26.90
2018-07-23T14:57:24.407Z,26.74
2018-07-23T14:59:53.825Z,26.78
2018-07-23T15:02:23.219Z,27.36
2018-07-23T15:04:52.649Z,27.57
2018-07-23T15:07:22.049Z,27.21
2018-07-23T15:09:51.439Z,28.30
2018-07-23T15:12:20.831Z,28.28
2018-07-23T15:14:50.230Z,28.63
2018-07-23T15:17:19.626Z,28.56
2018-07-23T15:19:49.044Z,28.77
2018-07-23T15:22:18.469Z,28.31
2018-07-23T15:24:47.855Z,28.28
2018-07-23T15:27:17.306Z,28.47
2018-07-23T15:29:46.673Z,28.82
2018-07-23T15:32:16.075Z,28.79
2018-07-23T15:34:45.467Z,27.97
2018-07-23T15:37:14.863Z,28.79
2018-07-23T15:39:44.240Z,28.59
2018-07-23T15:42:13.687Z,28.48
2018-07-23T15:44:43.453Z,28.51
2018-07-23T15:47:12.932Z,28.11
2018-07-23T15:49:42.347Z,27.70
2018-07-23T15:52:11.752Z,27.94
2018-07-23T15:54:41.151Z,28.17
2018-07-23T15:57:10.531Z,28.28
2018-07-23T15:59:39.916Z,28.47
2018-07-23T16:02:09.532Z,28.43
2018-07-23T16:04:38.663Z,28.20
2018-07-23T16:07:08.050Z,28.49
2018-07-23T16:09:37.427Z,28.40
2018-07-23T16:12:06.871Z,28.15
2018-07-23T16:14:36.258Z,27.99
2018-07-23T16:17:05.669Z,28.03
2018-07-23T16:19:35.065Z,28.11
2018-07-23T16:22:04.504Z,28.02
2018-07-23T16:24:33.843Z,27.70
2018-07-23T16:27:02.982Z,27.87
2018-07-23T16:29:32.353Z,28.11
2018-07-23T16:32:01.695Z,28.07
2018-07-23T16:34:31.107Z,28.03
2018-07-23T16:37:00.480Z,28.05
2018-07-23T16:39:29.839Z,28.14
2018-07-23T16:41:59.230Z,28.08
2018-07-23T16:44:28.603Z,28.13
2018-07-23T16:46:58.026Z,28.10
2018-07-23T16:49:27.376Z,27.84
2018-07-23T16:51:56.983Z,27.61
2018-07-23T16:54:26.381Z,27.44
2018-07-23T16:56:55.788Z,27.27
2018-07-23T16:59:25.206Z,27.10
2018-07-23T17:01:54.580Z,27.15
2018-07-23T17:04:23.730Z,27.69
2018-07-23T17:06:53.158Z,27.20
2018-07-23T17:09:22.499Z,27.11
2018-07-23T17:11:51.885Z,26.95
2018-07-23T17:14:21.091Z,26.94
2018-07-23T17:16:50.500Z,27.18
2018-07-23T17:19:19.884Z,27.21
2018-07-23T17:21:49.018Z,27.24
2018-07-23T17:24:18.395Z,27.18
2018-07-23T17:26:47.763Z,27.17
2018-07-23T17:29:16.890Z,27.13
2018-07-23T17:31:46.335Z,27.18
2018-07-23T17:34:15.704Z,26.92
2018-07-23T17:36:45.899Z,26.93
2018-07-23T17:39:15.019Z,26.83
2018-07-23T17:41:44.416Z,26.75
2018-07-23T17:44:13.799Z,26.70
2018-07-23T17:46:43.176Z,26.56
2018-07-23T17:49:12.566Z,26.31
2018-07-23T17:51:41.940Z,26.47
2018-07-23T17:54:11.604Z,26.37
2018-07-23T17:56:40.715Z,26.42
2018-07-23T17:59:10.100Z,26.37
2018-07-23T18:01:39.238Z,26.37
2018-07-23T18:04:09.352Z,26.26
2018-07-23T18:06:38.835Z,26.21
2018-07-23T18:09:10.811Z,26.29
2018-07-23T18:11:40.223Z,26.08
2018-07-23T18:14:09.997Z,26.03
2018-07-23T18:16:39.238Z,25.84
2018-07-23T18:19:08.654Z,25.70
2018-07-23T18:21:38.053Z,25.71
2018-07-23T18:24:07.509Z,25.70
2018-07-23T18:26:36.686Z,26.28
2018-07-23T18:29:06.128Z,25.57
2018-07-23T18:31:35.510Z,25.48
2018-07-23T18:34:04.916Z,25.23
2018-07-23T18:36:34.343Z,25.22
2018-07-23T18:39:03.784Z,25.15
2018-07-23T18:41:33.175Z,25.08
2018-07-23T18:44:02.573Z,24.74
2018-07-23T18:46:31.992Z,24.61
2018-07-23T18:49:44.899Z,24.42
2018-07-23T18:52:14.900Z,24.09
2018-07-23T18:54:45.750Z,23.94
2018-07-23T18:57:15.190Z,23.86
2018-07-23T18:59:44.678Z,23.73
2018-07-23T19:02:14.862Z,23.67
2018-07-23T19:04:44.254Z,23.36
2018-07-23T19:07:13.678Z,23.21
2018-07-23T19:09:43.210Z,22.97
2018-07-23T19:12:13.076Z,22.65
2018-07-23T19:14:42.479Z,22.66
2018-07-23T19:17:13.316Z,22.50
2018-07-23T19:19:42.719Z,22.39
2018-07-23T19:22:12.118Z,22.27
2018-07-23T19:24:41.535Z,22.28
2018-07-23T19:27:10.973Z,22.04
2018-07-23T19:29:40.308Z,21.93
2018-07-23T19:32:09.711Z,21.84
2018-07-23T19:34:38.810Z,21.81
2018-07-23T19:37:08.214Z,21.77
2018-07-23T19:39:37.603Z,21.75
2018-07-23T19:42:07.098Z,21.61
2018-07-23T19:44:36.500Z,21.42
2018-07-23T19:47:05.986Z,21.95
2018-07-23T19:49:35.376Z,21.29
2018-07-23T19:52:04.778Z,21.16
2018-07-23T19:54:34.198Z,21.05
2018-07-23T19:57:03.585Z,20.92
2018-07-23T19:59:32.993Z,20.82
2018-07-23T20:02:02.400Z,20.83
2018-07-23T20:04:31.783Z,20.66
2018-07-23T20:07:01.171Z,20.64
2018-07-23T20:09:30.548Z,20.58
2018-07-23T20:11:59.959Z,20.50
2018-07-23T20:14:29.336Z,20.40
2018-07-23T20:16:58.482Z,20.90
2018-07-23T20:19:27.878Z,20.19
2018-07-23T20:21:57.252Z,20.17
2018-07-23T20:24:26.645Z,20.16
2018-07-23T20:26:56.032Z,20.03
2018-07-23T20:29:25.163Z,19.96
2018-07-23T20:31:54.563Z,20.01
2018-07-23T20:34:23.963Z,19.93
2018-07-23T20:36:53.365Z,19.76
2018-07-23T20:39:22.752Z,102.61
2018-07-23T20:41:52.166Z,19.59
2018-07-23T20:44:21.384Z,19.51
2018-07-23T20:46:50.470Z,19.44
2018-07-23T20:49:19.864Z,19.38
2018-07-23T20:51:49.255Z,19.42
2018-07-23T20:54:18.657Z,18.62
2018-07-23T20:56:48.125Z,19.21
2018-07-23T20:59:17.431Z,19.25
2018-07-23T21:01:46.814Z,18.99
2018-07-23T21:04:16.208Z,19.10
2018-07-23T21:06:45.609Z,19.00
2018-07-23T21:09:15.012Z,18.95
2018-07-23T21:11:44.400Z,18.90
2018-07-23T21:14:13.783Z,18.90
2018-07-23T21:16:43.167Z,18.78
2018-07-23T21:19:12.559Z,18.71
2018-07-23T21:21:41.952Z,18.72
2018-07-23T21:24:11.352Z,19.28
2018-07-23T21:26:40.734Z,18.53
2018-07-23T21:29:10.135Z,18.55
2018-07-23T21:31:39.527Z,18.49
2018-07-23T21:34:08.947Z,18.48
2018-07-23T21:36:38.340Z,18.40
2018-07-23T21:39:09.660Z,18.35
2018-07-23T21:41:39.071Z,18.26
2018-07-23T21:44:09.555Z,18.28
2018-07-23T21:46:38.940Z,18.30
2018-07-23T21:49:08.328Z,18.14
2018-07-23T21:51:37.719Z,18.26
2018-07-23T21:54:07.354Z,18.17
2018-07-23T21:56:36.747Z,18.13
2018-07-23T21:59:06.148Z,18.06
2018-07-23T22:01:35.532Z,18.07
2018-07-23T22:04:04.928Z,18.05
2018-07-23T22:06:34.310Z,18.03
2018-07-23T22:09:03.923Z,17.93
2018-07-23T22:11:33.348Z,17.93
2018-07-23T22:14:02.730Z,17.85
2018-07-23T22:16:32.104Z,17.85
2018-07-23T22:19:01.497Z,17.73
2018-07-23T22:21:30.865Z,17.68
2018-07-23T22:24:00.416Z,17.60
2018-07-23T22:26:29.822Z,17.83
2018-07-23T22:28:59.206Z,17.76
2018-07-23T22:31:28.583Z,17.64
2018-07-23T22:33:57.975Z,17.36
2018-07-23T22:36:27.364Z,17.65
2018-07-23T22:38:56.739Z,17.59
2018-07-23T22:41:26.124Z,17.53
2018-07-23T22:43:55.516Z,17.47
2018-07-23T22:46:24.638Z,17.32
2018-07-23T22:48:54.015Z,17.30
2018-07-23T22:51:23.147Z,17.17
2018-07-23T22:53:52.528Z,17.21
2018-07-23T22:56:21.953Z,17.08
2018-07-23T22:58:51.332Z,17.11
2018-07-23T23:01:21.051Z,17.04
2018-07-23T23:03:50.434Z,16.93
2018-07-23T23:06:19.819Z,16.89
2018-07-23T23:08:48.944Z,16.55
2018-07-23T23:11:18.355Z,16.93
2018-07-23T23:13:47.730Z,16.82
2018-07-23T23:16:17.136Z,16.75
2018-07-23T23:18:46.504Z,16.66
2018-07-23T23:21:15.895Z,16.71
2018-07-23T23:23:45.255Z,16.82
2018-07-23T23:26:14.641Z,16.78
2018-07-23T23:28:43.754Z,16.73
2018-07-23T23:31:13.147Z,16.55
2018-07-23T23:33:42.524Z,16.53
2018-07-23T23:36:11.899Z,17.20
2018-07-23T23:38:41.340Z,16.69
2018-07-23T23:41:10.475Z,16.61
2018-07-23T23:43:39.895Z,16.57
2018-07-23T23:46:09.283Z,16.51
2018-07-23T23:48:38.666Z,16.43
2018-07-23T23:51:08.052Z,16.42
2018-07-23T23:53:37.431Z,16.44
2018-07-23T23:56:06.857Z,16.35
2018-07-23T23:58:36.231Z,16.33
